METAR Data
IDs: Format: Raw Decoded Include TAF

Data at: 2057 UTC 20 Oct 2018

METAR for:KFNL (Fort Collins/Lovelan, CO, US)
Text:KFNL 202056Z AUTO 17011G14KT 140V200 10SM CLR 20/M03 A3033 RMK AO2 SLP243 6//// T02001033 56026 PNO $
Temperature: 20.0°C ( 68°F)
Dewpoint: -3.3°C ( 26°F) [RH = 20%]
Pressure (altimeter):30.33 inches Hg (1027.2 mb) [Sea level pressure: 1024.3 mb]
Winds:from the S (170 degrees) at 13 MPH (11 knots; 5.7 m/s) gusting to 16 MPH (14 knots; 7.2 m/s)
Visibility:10 or more sm (16+ km)
Ceiling:at least 12,000 feet AGL
Clouds:sky clear below 12,000 feet AGL
QC Flag:automated observation with no human augmentation; SOME DATA ABOVE MAY BE INACCURATE!!!"$" is an indication the sensor requires maintenance.
Text:KFNL 201956Z AUTO 16008KT 10SM CLR 20/M02 A3035 RMK AO2 SLP249 T02001022 PNO $
Temperature: 20.0°C ( 68°F)
Dewpoint: -2.2°C ( 28°F) [RH = 22%]
Pressure (altimeter):30.35 inches Hg (1027.9 mb) [Sea level pressure: 1024.9 mb]
Winds:from the SSE (160 degrees) at 9 MPH (8 knots; 4.1 m/s)
Visibility:10 or more sm (16+ km)
Ceiling:at least 12,000 feet AGL
Clouds:sky clear below 12,000 feet AGL
QC Flag:automated observation with no human augmentation; SOME DATA ABOVE MAY BE INACCURATE!!!"$" is an indication the sensor requires maintenance.
Text:KFNL 201856Z AUTO 13008KT 10SM CLR 19/M02 A3039 RMK AO2 SLP263 T01891022 PNO $
Temperature: 18.9°C ( 66°F)
Dewpoint: -2.2°C ( 28°F) [RH = 24%]
Pressure (altimeter):30.39 inches Hg (1029.2 mb) [Sea level pressure: 1026.3 mb]
Winds:from the SE (130 degrees) at 9 MPH (8 knots; 4.1 m/s)
Visibility:10 or more sm (16+ km)
Ceiling:at least 12,000 feet AGL
Clouds:sky clear below 12,000 feet AGL
QC Flag:automated observation with no human augmentation; SOME DATA ABOVE MAY BE INACCURATE!!!"$" is an indication the sensor requires maintenance.
Text:KFNL 201756Z AUTO VRB04KT 10SM CLR 17/M02 A3042 RMK AO2 SLP274 6//// T01721017 10172 20022 58006 PNO $
Temperature: 17.2°C ( 63°F)
Dewpoint: -1.7°C ( 29°F) [RH = 27%]
Pressure (altimeter):30.42 inches Hg (1030.2 mb) [Sea level pressure: 1027.4 mb]
Winds:variable direction winds at 5 MPH (4 knots; 2.1 m/s)
Visibility:10 or more sm (16+ km)
Ceiling:at least 12,000 feet AGL
Clouds:sky clear below 12,000 feet AGL
QC Flag:automated observation with no human augmentation; SOME DATA ABOVE MAY BE INACCURATE!!!"$" is an indication the sensor requires maintenance.
Text:KFNL 201656Z AUTO VRB04KT 10SM CLR 16/M02 A3043 RMK AO2 SLP279 T01561022 PNO $
Temperature: 15.6°C ( 60°F)
Dewpoint: -2.2°C ( 28°F) [RH = 29%]
Pressure (altimeter):30.43 inches Hg (1030.6 mb) [Sea level pressure: 1027.9 mb]
Winds:variable direction winds at 5 MPH (4 knots; 2.1 m/s)
Visibility:10 or more sm (16+ km)
Ceiling:at least 12,000 feet AGL
Clouds:sky clear below 12,000 feet AGL
QC Flag:automated observation with no human augmentation; SOME DATA ABOVE MAY BE INACCURATE!!!"$" is an indication the sensor requires maintenance.
Text:KFNL 201556Z AUTO 00000KT 10SM CLR 12/M02 A3044 RMK AO2 SLP285 T01171017 PNO $
Temperature: 11.7°C ( 53°F)
Dewpoint: -1.7°C ( 29°F) [RH = 39%]
Pressure (altimeter):30.44 inches Hg (1030.9 mb) [Sea level pressure: 1028.5 mb]
Winds:calm
Visibility:10 or more sm (16+ km)
Ceiling:at least 12,000 feet AGL
Clouds:sky clear below 12,000 feet AGL
QC Flag:automated observation with no human augmentation; SOME DATA ABOVE MAY BE INACCURATE!!!"$" is an indication the sensor requires maintenance.
Text:KFNL 201456Z AUTO 00000KT 10SM CLR 07/01 A3044 RMK AO2 SLP294 6//// T00720011 53008 PNO $
Temperature: 7.2°C ( 45°F)
Dewpoint: 1.1°C ( 34°F) [RH = 65%]
Pressure (altimeter):30.44 inches Hg (1030.9 mb) [Sea level pressure: 1029.4 mb]
Winds:calm
Visibility:10 or more sm (16+ km)
Ceiling:at least 12,000 feet AGL
Clouds:sky clear below 12,000 feet AGL
QC Flag:automated observation with no human augmentation; SOME DATA ABOVE MAY BE INACCURATE!!!"$" is an indication the sensor requires maintenance.
Text:KFNL 201356Z AUTO 00000KT 10SM CLR 04/M01 A3043 RMK AO2 SLP290 T00441011 PNO $
Temperature: 4.4°C ( 40°F)
Dewpoint: -1.1°C ( 30°F) [RH = 67%]
Pressure (altimeter):30.43 inches Hg (1030.6 mb) [Sea level pressure: 1029.0 mb]
Winds:calm
Visibility:10 or more sm (16+ km)
Ceiling:at least 12,000 feet AGL
Clouds:sky clear below 12,000 feet AGL
QC Flag:automated observation with no human augmentation; SOME DATA ABOVE MAY BE INACCURATE!!!"$" is an indication the sensor requires maintenance.
Text:KFNL 201256Z AUTO 31003KT 10SM CLR 03/M02 A3042 RMK AO2 SLP289 T00331022 PNO $
Temperature: 3.3°C ( 38°F)
Dewpoint: -2.2°C ( 28°F) [RH = 67%]
Pressure (altimeter):30.42 inches Hg (1030.2 mb) [Sea level pressure: 1028.9 mb]
Winds:from the NW (310 degrees) at 3 MPH (3 knots; 1.5 m/s)
Visibility:10 or more sm (16+ km)
Ceiling:at least 12,000 feet AGL
Clouds:sky clear below 12,000 feet AGL
QC Flag:automated observation with no human augmentation; SOME DATA ABOVE MAY BE INACCURATE!!!"$" is an indication the sensor requires maintenance.
Text:KFNL 201156Z AUTO 00000KT 10SM CLR 03/M02 A3041 RMK AO2 SLP279 6//// 7//// T00331017 10078 20006 53003 PNO $
Temperature: 3.3°C ( 38°F)
Dewpoint: -1.7°C ( 29°F) [RH = 70%]
Pressure (altimeter):30.41 inches Hg (1029.9 mb) [Sea level pressure: 1027.9 mb]
Winds:calm
Visibility:10 or more sm (16+ km)
Ceiling:at least 12,000 feet AGL
Clouds:sky clear below 12,000 feet AGL
QC Flag:automated observation with no human augmentation; SOME DATA ABOVE MAY BE INACCURATE!!!"$" is an indication the sensor requires maintenance.
Text:KFNL 201056Z AUTO 00000KT 10SM CLR 03/M02 A3040 RMK AO2 SLP270 T00281022 PNO $
Temperature: 2.8°C ( 37°F)
Dewpoint: -2.2°C ( 28°F) [RH = 70%]
Pressure (altimeter):30.40 inches Hg (1029.5 mb) [Sea level pressure: 1027.0 mb]
Winds:calm
Visibility:10 or more sm (16+ km)
Ceiling:at least 12,000 feet AGL
Clouds:sky clear below 12,000 feet AGL
QC Flag:automated observation with no human augmentation; SOME DATA ABOVE MAY BE INACCURATE!!!"$" is an indication the sensor requires maintenance.
Text:KFNL 200956Z AUTO 01004KT 10SM CLR 03/M02 A3040 RMK AO2 SLP269 T00281017 PNO $
Temperature: 2.8°C ( 37°F)
Dewpoint: -1.7°C ( 29°F) [RH = 72%]
Pressure (altimeter):30.40 inches Hg (1029.5 mb) [Sea level pressure: 1026.9 mb]
Winds:from the N (10 degrees) at 5 MPH (4 knots; 2.1 m/s)
Visibility:10 or more sm (16+ km)
Ceiling:at least 12,000 feet AGL
Clouds:sky clear below 12,000 feet AGL
QC Flag:automated observation with no human augmentation; SOME DATA ABOVE MAY BE INACCURATE!!!"$" is an indication the sensor requires maintenance.
Text:KFNL 200856Z AUTO 03006KT 10SM CLR 04/M02 A3040 RMK AO2 SLP267 6//// T00391017 56005 PNO $
Temperature: 3.9°C ( 39°F)
Dewpoint: -1.7°C ( 29°F) [RH = 67%]
Pressure (altimeter):30.40 inches Hg (1029.5 mb) [Sea level pressure: 1026.7 mb]
Winds:from the NNE (30 degrees) at 7 MPH (6 knots; 3.1 m/s)
Visibility:10 or more sm (16+ km)
Ceiling:at least 12,000 feet AGL
Clouds:sky clear below 12,000 feet AGL
QC Flag:automated observation with no human augmentation; SOME DATA ABOVE MAY BE INACCURATE!!!"$" is an indication the sensor requires maintenance.
Text:KFNL 200756Z AUTO 02004KT 10SM CLR 06/M01 A3041 RMK AO2 SLP266 T00561011 PNO $
Temperature: 5.6°C ( 42°F)
Dewpoint: -1.1°C ( 30°F) [RH = 62%]
Pressure (altimeter):30.41 inches Hg (1029.9 mb) [Sea level pressure: 1026.6 mb]
Winds:from the NNE (20 degrees) at 5 MPH (4 knots; 2.1 m/s)
Visibility:10 or more sm (16+ km)
Ceiling:at least 12,000 feet AGL
Clouds:sky clear below 12,000 feet AGL
QC Flag:automated observation with no human augmentation; SOME DATA ABOVE MAY BE INACCURATE!!!"$" is an indication the sensor requires maintenance.
Text:KFNL 200656Z AUTO 23003KT 10SM CLR 06/01 A3041 RMK AO2 SLP269 T00560011 402110056 PNO $
Temperature: 5.6°C ( 42°F)
Dewpoint: 1.1°C ( 34°F) [RH = 73%]
Pressure (altimeter):30.41 inches Hg (1029.9 mb) [Sea level pressure: 1026.9 mb]
Winds:from the SW (230 degrees) at 3 MPH (3 knots; 1.5 m/s)
Visibility:10 or more sm (16+ km)
Ceiling:at least 12,000 feet AGL
Clouds:sky clear below 12,000 feet AGL
QC Flag:automated observation with no human augmentation; SOME DATA ABOVE MAY BE INACCURATE!!!"$" is an indication the sensor requires maintenance.
Text:KFNL 200556Z AUTO 00000KT 10SM CLR 07/03 A3042 RMK AO2 SLP273 6//// T00720028 10172 20067 51009 PNO $
Temperature: 7.2°C ( 45°F)
Dewpoint: 2.8°C ( 37°F) [RH = 74%]
Pressure (altimeter):30.42 inches Hg (1030.2 mb) [Sea level pressure: 1027.3 mb]
Winds:calm
Visibility:10 or more sm (16+ km)
Ceiling:at least 12,000 feet AGL
Clouds:sky clear below 12,000 feet AGL
QC Flag:automated observation with no human augmentation; SOME DATA ABOVE MAY BE INACCURATE!!!"$" is an indication the sensor requires maintenance.
Text:KFNL 200509Z AUTO 00000KT 8SM CLR 08/M02 A3042 RMK AO2 PNO $
Temperature: 8.0°C ( 46°F)
Dewpoint: -2.0°C ( 28°F) [RH = 49%]
Pressure (altimeter):30.42 inches Hg (1030.2 mb)
Winds:calm
Visibility: 8 sm ( 13 km)
Ceiling:at least 12,000 feet AGL
Clouds:sky clear below 12,000 feet AGL
QC Flag:automated observation with no human augmentation; SOME DATA ABOVE MAY BE INACCURATE!!!"$" is an indication the sensor requires maintenance.
Text:KFNL 200456Z AUTO 00000KT 2SM HZ CLR 08/M02 A3041 RMK AO2 VIS 3/4V5 SLP269 T00831022 PNO $
Temperature: 8.3°C ( 47°F)
Dewpoint: -2.2°C ( 28°F) [RH = 47%]
Pressure (altimeter):30.41 inches Hg (1029.9 mb) [Sea level pressure: 1026.9 mb]
Winds:calm
Visibility: 2.00 sm ( 3.22 km)
Ceiling:at least 12,000 feet AGL
Clouds:sky clear below 12,000 feet AGL
Weather:HZ (haze)
QC Flag:automated observation with no human augmentation; SOME DATA ABOVE MAY BE INACCURATE!!!"$" is an indication the sensor requires maintenance.
Text:KFNL 200356Z AUTO 03004KT 10SM CLR 11/M03 A3040 RMK AO2 SLP266 T01111028 PNO $
Temperature: 11.1°C ( 52°F)
Dewpoint: -2.8°C ( 27°F) [RH = 38%]
Pressure (altimeter):30.40 inches Hg (1029.5 mb) [Sea level pressure: 1026.6 mb]
Winds:from the NNE (30 degrees) at 5 MPH (4 knots; 2.1 m/s)
Visibility:10 or more sm (16+ km)
Ceiling:at least 12,000 feet AGL
Clouds:sky clear below 12,000 feet AGL
QC Flag:automated observation with no human augmentation; SOME DATA ABOVE MAY BE INACCURATE!!!"$" is an indication the sensor requires maintenance.
Text:KFNL 200256Z AUTO 30003KT 10SM CLR 11/00 A3039 RMK AO2 SLP269 6//// T01060000 52018 PNO $
Temperature: 10.6°C ( 51°F)
Dewpoint: 0.0°C ( 32°F) [RH = 48%]
Pressure (altimeter):30.39 inches Hg (1029.2 mb) [Sea level pressure: 1026.9 mb]
Winds:from the WNW (300 degrees) at 3 MPH (3 knots; 1.5 m/s)
Visibility:10 or more sm (16+ km)
Ceiling:at least 12,000 feet AGL
Clouds:sky clear below 12,000 feet AGL
QC Flag:automated observation with no human augmentation; SOME DATA ABOVE MAY BE INACCURATE!!!"$" is an indication the sensor requires maintenance.
Text:KFNL 200156Z AUTO 12007KT 10SM CLR 13/M03 A3037 RMK AO2 SLP264 T01281028 PNO $
Temperature: 12.8°C ( 55°F)
Dewpoint: -2.8°C ( 27°F) [RH = 34%]
Pressure (altimeter):30.37 inches Hg (1028.5 mb) [Sea level pressure: 1026.4 mb]
Winds:from the ESE (120 degrees) at 8 MPH (7 knots; 3.6 m/s)
Visibility:10 or more sm (16+ km)
Ceiling:at least 12,000 feet AGL
Clouds:sky clear below 12,000 feet AGL
QC Flag:automated observation with no human augmentation; SOME DATA ABOVE MAY BE INACCURATE!!!"$" is an indication the sensor requires maintenance.
Text:KFNL 200056Z AUTO 13007KT 10SM CLR 13/M02 A3035 RMK AO2 SLP257 T01331022 PNO $
Temperature: 13.3°C ( 56°F)
Dewpoint: -2.2°C ( 28°F) [RH = 34%]
Pressure (altimeter):30.35 inches Hg (1027.9 mb) [Sea level pressure: 1025.7 mb]
Winds:from the SE (130 degrees) at 8 MPH (7 knots; 3.6 m/s)
Visibility:10 or more sm (16+ km)
Ceiling:at least 12,000 feet AGL
Clouds:sky clear below 12,000 feet AGL
QC Flag:automated observation with no human augmentation; SOME DATA ABOVE MAY BE INACCURATE!!!"$" is an indication the sensor requires maintenance.
Text:KFNL 192356Z AUTO 13007KT 10SM CLR 17/M03 A3033 RMK AO2 SLP242 6//// T01721028 10211 20172 53005 PNO $
Temperature: 17.2°C ( 63°F)
Dewpoint: -2.8°C ( 27°F) [RH = 25%]
Pressure (altimeter):30.33 inches Hg (1027.2 mb) [Sea level pressure: 1024.2 mb]
Winds:from the SE (130 degrees) at 8 MPH (7 knots; 3.6 m/s)
Visibility:10 or more sm (16+ km)
Ceiling:at least 12,000 feet AGL
Clouds:sky clear below 12,000 feet AGL
QC Flag:automated observation with no human augmentation; SOME DATA ABOVE MAY BE INACCURATE!!!"$" is an indication the sensor requires maintenance.
Text:KFNL 192256Z AUTO 14006KT 10SM CLR 20/M04 A3032 RMK AO2 SLP235 T02001044 PNO $
Temperature: 20.0°C ( 68°F)
Dewpoint: -4.4°C ( 24°F) [RH = 19%]
Pressure (altimeter):30.32 inches Hg (1026.8 mb) [Sea level pressure: 1023.5 mb]
Winds:from the SE (140 degrees) at 7 MPH (6 knots; 3.1 m/s)
Visibility:10 or more sm (16+ km)
Ceiling:at least 12,000 feet AGL
Clouds:sky clear below 12,000 feet AGL
QC Flag:automated observation with no human augmentation; SOME DATA ABOVE MAY BE INACCURATE!!!"$" is an indication the sensor requires maintenance.
Text:KFNL 192156Z AUTO 00000KT 10SM CLR 21/M06 A3031 RMK AO2 SLP229 T02061056 PNO $
Temperature: 20.6°C ( 69°F)
Dewpoint: -5.6°C ( 22°F) [RH = 17%]
Pressure (altimeter):30.31 inches Hg (1026.5 mb) [Sea level pressure: 1022.9 mb]
Winds:calm
Visibility:10 or more sm (16+ km)
Ceiling:at least 12,000 feet AGL
Clouds:sky clear below 12,000 feet AGL
QC Flag:automated observation with no human augmentation; SOME DATA ABOVE MAY BE INACCURATE!!!"$" is an indication the sensor requires maintenance.
Text:KFNL 192056Z AUTO 04006KT 10SM CLR 21/M05 A3031 RMK AO2 SLP225 6//// T02111050 56013 PNO $
Temperature: 21.1°C ( 70°F)
Dewpoint: -5.0°C ( 23°F) [RH = 17%]
Pressure (altimeter):30.31 inches Hg (1026.5 mb) [Sea level pressure: 1022.5 mb]
Winds:from the NE (40 degrees) at 7 MPH (6 knots; 3.1 m/s)
Visibility:10 or more sm (16+ km)
Ceiling:at least 12,000 feet AGL
Clouds:sky clear below 12,000 feet AGL
QC Flag:automated observation with no human augmentation; SOME DATA ABOVE MAY BE INACCURATE!!!"$" is an indication the sensor requires maintenance.
Text:KFNL 191956Z AUTO 05008KT 10SM CLR 21/M04 A3032 RMK AO2 SLP233 T02061039 PNO $
Temperature: 20.6°C ( 69°F)
Dewpoint: -3.9°C ( 25°F) [RH = 19%]
Pressure (altimeter):30.32 inches Hg (1026.8 mb) [Sea level pressure: 1023.3 mb]
Winds:from the NE (50 degrees) at 9 MPH (8 knots; 4.1 m/s)
Visibility:10 or more sm (16+ km)
Ceiling:at least 12,000 feet AGL
Clouds:sky clear below 12,000 feet AGL
QC Flag:automated observation with no human augmentation; SOME DATA ABOVE MAY BE INACCURATE!!!"$" is an indication the sensor requires maintenance.
Text:KFNL 191856Z AUTO 05010G16KT 10SM CLR 19/M03 A3033 RMK AO2 SLP241 T01941033 PNO $
Temperature: 19.4°C ( 67°F)
Dewpoint: -3.3°C ( 26°F) [RH = 21%]
Pressure (altimeter):30.33 inches Hg (1027.2 mb) [Sea level pressure: 1024.1 mb]
Winds:from the NE (50 degrees) at 12 MPH (10 knots; 5.1 m/s) gusting to 18 MPH (16 knots; 8.2 m/s)
Visibility:10 or more sm (16+ km)
Ceiling:at least 12,000 feet AGL
Clouds:sky clear below 12,000 feet AGL
QC Flag:automated observation with no human augmentation; SOME DATA ABOVE MAY BE INACCURATE!!!"$" is an indication the sensor requires maintenance.
Text:KFNL 191756Z AUTO 01014KT 10SM CLR 18/M03 A3035 RMK AO2 SLP246 6//// T01831033 10183 20056 51010 PNO $
Temperature: 18.3°C ( 65°F)
Dewpoint: -3.3°C ( 26°F) [RH = 23%]
Pressure (altimeter):30.35 inches Hg (1027.9 mb) [Sea level pressure: 1024.6 mb]
Winds:from the N (10 degrees) at 16 MPH (14 knots; 7.2 m/s)
Visibility:10 or more sm (16+ km)
Ceiling:at least 12,000 feet AGL
Clouds:sky clear below 12,000 feet AGL
QC Flag:automated observation with no human augmentation; SOME DATA ABOVE MAY BE INACCURATE!!!"$" is an indication the sensor requires maintenance.
Text:KFNL 191656Z AUTO 02016G20KT 10SM CLR 18/M03 A3034 RMK AO2 SLP243 T01781028 PNO $
Temperature: 17.8°C ( 64°F)
Dewpoint: -2.8°C ( 27°F) [RH = 24%]
Pressure (altimeter):30.34 inches Hg (1027.5 mb) [Sea level pressure: 1024.3 mb]
Winds:from the NNE (20 degrees) at 18 MPH (16 knots; 8.2 m/s) gusting to 23 MPH (20 knots; 10.3 m/s)
Visibility:10 or more sm (16+ km)
Ceiling:at least 12,000 feet AGL
Clouds:sky clear below 12,000 feet AGL
QC Flag:automated observation with no human augmentation; SOME DATA ABOVE MAY BE INACCURATE!!!"$" is an indication the sensor requires maintenance.
Text:KFNL 191556Z AUTO 36010KT 10SM CLR 15/01 A3034 RMK AO2 SLP245 T01500006 PNO $
Temperature: 15.0°C ( 59°F)
Dewpoint: 0.6°C ( 33°F) [RH = 37%]
Pressure (altimeter):30.34 inches Hg (1027.5 mb) [Sea level pressure: 1024.5 mb]
Winds:from the N (360 degrees) at 12 MPH (10 knots; 5.1 m/s)
Visibility:10 or more sm (16+ km)
Ceiling:at least 12,000 feet AGL
Clouds:sky clear below 12,000 feet AGL
QC Flag:automated observation with no human augmentation; SOME DATA ABOVE MAY BE INACCURATE!!!"$" is an indication the sensor requires maintenance.
Text:KFNL 191456Z AUTO 02004KT 10SM CLR 10/01 A3032 RMK AO2 SLP246 6//// T01000006 53027 PNO $
Temperature: 10.0°C ( 50°F)
Dewpoint: 0.6°C ( 33°F) [RH = 52%]
Pressure (altimeter):30.32 inches Hg (1026.8 mb) [Sea level pressure: 1024.6 mb]
Winds:from the NNE (20 degrees) at 5 MPH (4 knots; 2.1 m/s)
Visibility:10 or more sm (16+ km)
Ceiling:at least 12,000 feet AGL
Clouds:sky clear below 12,000 feet AGL
QC Flag:automated observation with no human augmentation; SOME DATA ABOVE MAY BE INACCURATE!!!"$" is an indication the sensor requires maintenance.
Text:KFNL 191356Z AUTO 00000KT 10SM CLR 07/00 A3028 RMK AO2 SLP238 T00670000 PNO $
Temperature: 6.7°C ( 44°F)
Dewpoint: 0.0°C ( 32°F) [RH = 62%]
Pressure (altimeter):30.28 inches Hg (1025.5 mb) [Sea level pressure: 1023.8 mb]
Winds:calm
Visibility:10 or more sm (16+ km)
Ceiling:at least 12,000 feet AGL
Clouds:sky clear below 12,000 feet AGL
QC Flag:automated observation with no human augmentation; SOME DATA ABOVE MAY BE INACCURATE!!!"$" is an indication the sensor requires maintenance.
Text:KFNL 191256Z AUTO 01005KT 10SM CLR 06/M02 A3025 RMK AO2 SLP223 T00611017 PNO $
Temperature: 6.1°C ( 43°F)
Dewpoint: -1.7°C ( 29°F) [RH = 57%]
Pressure (altimeter):30.25 inches Hg (1024.5 mb) [Sea level pressure: 1022.3 mb]
Winds:from the N (10 degrees) at 6 MPH (5 knots; 2.6 m/s)
Visibility:10 or more sm (16+ km)
Ceiling:at least 12,000 feet AGL
Clouds:sky clear below 12,000 feet AGL
QC Flag:automated observation with no human augmentation; SOME DATA ABOVE MAY BE INACCURATE!!!"$" is an indication the sensor requires maintenance.
Text:KFNL 191156Z AUTO 04005KT 10SM CLR 07/M01 A3022 RMK AO2 SLP209 6//// 7//// T00671011 10100 20056 53012 PNO $
Temperature: 6.7°C ( 44°F)
Dewpoint: -1.1°C ( 30°F) [RH = 57%]
Pressure (altimeter):30.22 inches Hg (1023.5 mb) [Sea level pressure: 1020.9 mb]
Winds:from the NE (40 degrees) at 6 MPH (5 knots; 2.6 m/s)
Visibility:10 or more sm (16+ km)
Ceiling:at least 12,000 feet AGL
Clouds:sky clear below 12,000 feet AGL
QC Flag:automated observation with no human augmentation; SOME DATA ABOVE MAY BE INACCURATE!!!"$" is an indication the sensor requires maintenance.
Text:KFNL 191056Z AUTO 05005KT 10SM CLR 07/M01 A3020 RMK AO2 SLP194 T00671006 PNO $
Temperature: 6.7°C ( 44°F)
Dewpoint: -0.6°C ( 31°F) [RH = 60%]
Pressure (altimeter):30.20 inches Hg (1022.8 mb) [Sea level pressure: 1019.4 mb]
Winds:from the NE (50 degrees) at 6 MPH (5 knots; 2.6 m/s)
Visibility:10 or more sm (16+ km)
Ceiling:at least 12,000 feet AGL
Clouds:sky clear below 12,000 feet AGL
QC Flag:automated observation with no human augmentation; SOME DATA ABOVE MAY BE INACCURATE!!!"$" is an indication the sensor requires maintenance.
Text:KFNL 190956Z AUTO 00000KT 10SM CLR 08/00 A3019 RMK AO2 SLP188 T00830000 PNO $
Temperature: 8.3°C ( 47°F)
Dewpoint: 0.0°C ( 32°F) [RH = 56%]
Pressure (altimeter):30.19 inches Hg (1022.4 mb) [Sea level pressure: 1018.8 mb]
Winds:calm
Visibility:10 or more sm (16+ km)
Ceiling:at least 12,000 feet AGL
Clouds:sky clear below 12,000 feet AGL
QC Flag:automated observation with no human augmentation; SOME DATA ABOVE MAY BE INACCURATE!!!"$" is an indication the sensor requires maintenance.